Provo, Utah
Current Conditions -  °F | °C
As of 5:47 PM on Friday 28 Nov 2014 (Local Time) from KPVU Reporting Station
Few Clouds Few Clouds  
Wind Chill:   Ceiling: Unl
Heat Index:   Visibility: 15mi
Dew Point: -8°   Wind: 7mph
Humidity: 30%   Direction: 130°SE
Pressure: 29.89"   Gusts: NA
Location:  40.23°N, 111.66°W
Report Text: KPVU 290047Z 13006KT 15SM FEW150 09/M08 A2989
Loading
Personal Weather Stations






























Interactive Weather Map New forecast layout! Learn more

10-Day Weather Forecast

Advertisements
Track Severe Weather on mobile